Weather at Ascona Airport [CLOSED]

Public forecast

Using degrees Celsius for public forecast. Weather courtesy of forecast.io.

Closest aviation weather report (METAR) to Ascona Airport

Closest report is Locarno Airport, 4.0 nm (7.5 km) E. Retrieved 2021/01/28 07:20 UTC (0 seconds ago):

LSZL 280720Z VRB01KT 9999 FEW015 BKN100 01/01 Q1014 RMK BLU

Closest aviation forecast (TAF) to Ascona Airport

Closest forecast is Malpensa International Airport, 31.7 nm (58.8 km) S. Retrieved 2021/01/28 06:00 UTC (1 hour ago):

TAF LIMC 280500Z 2806/2912 35007KT CAVOK